Time;durP1;ratioP1;P1;durP2;ratioP2;P2;SDS_P1;SDS_P2;PMS_P1;PMS_P2;Temp;Humidity;BMP_temperature;BMP_pressure;BME280_temperature;BME280_humidity;BME280_pressure;Samples;Min_cycle;Max_cycle;Signal;HPM_P1;HPM_P2
2023/05/19 00:01:29;;;;;;;4.35;2.05;;;9.30;99.90;;;8.63;100.00;102195.53;4121806;28;20046;-72
2023/05/19 00:03:32;;;;;;;3.47;1.65;;;9.30;99.90;;;8.62;100.00;102198.28;4136843;28;20121;-72
2023/05/19 00:05:39;;;;;;;5.28;2.13;;;9.30;99.90;;;8.61;100.00;102201.84;4120809;28;20026;-72
2023/05/19 00:07:42;;;;;;;3.60;2.00;;;9.30;99.90;;;8.57;100.00;102203.84;4135342;28;20026;-72
2023/05/19 00:09:43;;;;;;;4.82;2.25;;;9.20;99.90;;;8.51;100.00;102195.56;4136256;28;20045;-72
2023/05/19 00:11:45;;;;;;;8.68;2.22;;;9.20;99.90;;;8.58;100.00;102202.91;4121839;28;20080;-72
2023/05/19 00:13:48;;;;;;;4.88;2.28;;;9.20;99.90;;;8.56;100.00;102193.44;4136826;28;20041;-72
2023/05/19 00:15:50;;;;;;;5.60;2.17;;;9.20;99.90;;;8.58;100.00;102186.28;4121754;28;20054;-72
2023/05/19 00:17:51;;;;;;;5.88;2.20;;;9.20;99.90;;;8.56;100.00;102186.41;4121607;28;20120;-72
2023/05/19 00:19:53;;;;;;;7.82;2.70;;;9.20;99.90;;;8.53;100.00;102184.00;4136687;28;20505;-72
2023/05/19 00:21:54;;;;;;;5.38;2.10;;;9.20;99.90;;;8.54;100.00;102196.16;4136487;28;20033;-72
2023/05/19 00:23:55;;;;;;;3.42;1.90;;;9.20;99.90;;;8.48;100.00;102182.63;4121516;28;20031;-72
2023/05/19 00:25:56;;;;;;;5.32;1.92;;;9.20;99.90;;;8.50;100.00;102189.47;4121284;28;20045;-72
2023/05/19 00:27:58;;;;;;;5.05;2.30;;;9.10;99.90;;;8.49;100.00;102185.13;4121516;28;20019;-72
2023/05/19 00:29:58;;;;;;;6.60;1.90;;;9.10;99.90;;;8.45;100.00;102185.47;4121522;28;20394;-72
2023/05/19 00:31:59;;;;;;;4.53;2.20;;;9.10;99.90;;;8.44;100.00;102184.63;4136378;28;20030;-72
2023/05/19 00:34:00;;;;;;;5.57;2.20;;;9.10;99.90;;;8.44;100.00;102179.38;4121265;28;20045;-72
2023/05/19 00:36:03;;;;;;;6.80;2.08;;;9.10;99.90;;;8.42;100.00;102186.53;4121484;28;20023;-72
2023/05/19 00:38:04;;;;;;;5.72;2.15;;;9.00;99.90;;;8.40;100.00;102177.03;4112187;28;20085;-72
2023/05/19 00:40:06;;;;;;;5.50;2.28;;;9.00;99.90;;;8.35;100.00;102169.50;4119812;28;20415;-72
2023/05/19 00:42:07;;;;;;;7.85;2.50;;;9.00;99.90;;;8.36;100.00;102186.13;4121063;28;20130;-72
2023/05/19 00:44:08;;;;;;;5.65;2.60;;;9.00;99.90;;;8.30;100.00;102179.50;4136249;28;20026;-72
2023/05/19 00:46:09;;;;;;;6.80;2.60;;;9.00;99.90;;;8.30;100.00;102179.50;4136014;28;20438;-72
2023/05/19 00:48:10;;;;;;;5.03;2.30;;;8.90;99.90;;;8.29;100.00;102178.66;4120129;28;20109;-72
2023/05/19 00:50:11;;;;;;;6.07;2.60;;;8.90;99.90;;;8.26;100.00;102181.47;4121109;28;20043;-72
2023/05/19 00:52:12;;;;;;;3.95;2.25;;;8.90;99.90;;;8.24;100.00;102177.25;4121356;28;20023;-72
2023/05/19 00:54:13;;;;;;;11.20;3.38;;;8.80;99.90;;;8.23;100.00;102181.66;4120892;28;20115;-72
2023/05/19 00:56:15;;;;;;;6.07;2.80;;;8.90;99.90;;;8.19;100.00;102188.06;4135927;28;20026;-72
2023/05/19 00:58:17;;;;;;;6.28;2.25;;;8.90;99.90;;;8.19;100.00;102195.13;4119756;28;20027;-72
2023/05/19 01:00:19;;;;;;;5.28;2.13;;;8.90;99.90;;;8.17;100.00;102186.50;4135826;28;20552;-72
2023/05/19 01:02:20;;;;;;;5.95;2.28;;;8.80;99.90;;;8.14;100.00;102187.56;4121170;28;20030;-73
2023/05/19 01:04:24;;;;;;;4.95;2.35;;;8.80;99.90;;;8.16;100.00;102188.28;4135820;28;20069;-72
2023/05/19 01:06:26;;;;;;;7.07;2.88;;;8.80;99.90;;;8.15;100.00;102188.41;4103824;28;20125;-72
2023/05/19 01:08:28;;;;;;;4.80;2.60;;;8.80;99.90;;;8.13;100.00;102185.88;4120672;28;20050;-72
2023/05/19 01:10:29;;;;;;;6.88;3.22;;;8.70;99.90;;;8.10;100.00;102180.81;4120732;28;20479;-72
2023/05/19 01:12:30;;;;;;;3.33;2.10;;;8.80;99.90;;;8.10;100.00;102186.06;4135590;28;20027;-72
2023/05/19 01:14:30;;;;;;;6.32;2.50;;;8.70;99.90;;;8.12;100.00;102183.34;4119521;28;20429;-72
2023/05/19 01:16:41;;;;;;;7.00;3.30;;;8.70;99.90;;;8.10;100.00;102179.97;4119401;28;20026;-72
2023/05/19 01:19:20;;;;;;;5.70;2.70;;;8.70;99.90;;;8.05;100.00;102188.19;4120532;28;20053;-72
2023/05/19 01:22:06;;;;;;;6.88;2.13;;;8.70;99.90;;;8.03;100.00;102173.47;4133606;28;20033;-72
2023/05/19 01:24:53;;;;;;;7.10;2.67;;;8.70;99.90;;;7.90;100.00;102155.06;4112663;28;20049;-72
2023/05/19 01:27:33;;;;;;;7.78;2.45;;;8.60;99.90;;;7.97;100.00;102173.88;4119634;28;20023;-72
2023/05/19 01:30:24;;;;;;;6.82;2.60;;;8.60;99.90;;;7.90;100.00;102175.25;4135485;28;20496;-72
2023/05/19 01:32:25;;;;;;;7.15;2.72;;;8.60;99.90;;;7.85;100.00;102172.09;4118726;28;20138;-72
2023/05/19 01:34:28;;;;;;;7.13;2.50;;;8.50;99.90;;;7.85;100.00;102180.81;4113120;28;20043;-72
2023/05/19 01:36:30;;;;;;;6.10;2.30;;;8.50;99.90;;;7.78;100.00;102169.03;4135413;28;20058;-72
2023/05/19 01:38:36;;;;;;;6.10;2.70;;;8.40;99.90;;;7.76;100.00;102170.94;4135433;28;20092;-72
2023/05/19 01:40:39;;;;;;;7.75;3.20;;;8.40;99.90;;;7.66;100.00;102160.19;4134564;28;20034;-72
2023/05/19 01:42:40;;;;;;;5.85;2.90;;;8.40;99.90;;;7.69;100.00;102170.50;4135352;28;20038;-72
2023/05/19 01:44:42;;;;;;;8.63;3.35;;;8.40;99.90;;;7.71;100.00;102167.75;4110105;28;20035;-72
2023/05/19 01:46:44;;;;;;;5.38;3.15;;;8.40;99.90;;;7.72;100.00;102162.41;4134998;28;20042;-72
2023/05/19 01:48:46;;;;;;;7.63;2.40;;;8.40;99.90;;;7.74;100.00;102172.78;4120115;28;20054;-72
2023/05/19 01:50:47;;;;;;;9.25;3.47;;;8.40;99.90;;;7.70;100.00;102168.72;4135146;28;20026;-72
2023/05/19 01:52:48;;;;;;;5.78;2.30;;;8.40;99.90;;;7.63;100.00;102176.16;4120446;28;20085;-72
2023/05/19 01:54:49;;;;;;;5.93;2.72;;;8.30;99.90;;;7.55;100.00;102162.69;4134727;28;20032;-72
2023/05/19 01:58:00;;;;;;;11.27;3.05;;;8.30;99.90;;;7.51;100.00;102160.38;4120304;28;20022;-72
2023/05/19 02:00:30;;;;;;;6.97;2.55;;;8.30;99.90;;;7.57;100.00;102168.69;4102359;29;20562;-72
2023/05/19 02:03:04;;;;;;;9.77;3.03;;;8.20;99.90;;;7.55;100.00;102178.47;4088490;29;20582;-72
2023/05/19 02:05:17;;;;;;;8.40;3.33;;;8.20;99.90;;;7.50;100.00;102170.03;4101297;28;20134;-72
2023/05/19 02:07:35;;;;;;;8.80;3.20;;;8.20;99.90;;;7.53;100.00;102169.81;4119145;28;20042;-72
2023/05/19 02:10:13;;;;;;;7.45;3.35;;;8.20;99.90;;;7.51;100.00;102174.34;4118575;28;20058;-72
2023/05/19 02:12:39;;;;;;;6.75;3.60;;;8.20;99.90;;;7.46;100.00;102157.22;4119051;28;20034;-72
2023/05/19 02:15:02;;;;;;;7.60;3.40;;;8.10;99.90;;;7.53;100.00;102171.59;4134840;28;20022;-72
2023/05/19 02:17:04;;;;;;;10.65;3.33;;;8.10;99.90;;;7.50;100.00;102159.53;4118791;28;20035;-72
2023/05/19 02:19:05;;;;;;;7.72;3.10;;;8.20;99.90;;;7.55;100.00;102162.69;4120282;28;20026;-72
2023/05/19 02:21:05;;;;;;;6.65;3.42;;;8.20;99.90;;;7.56;100.00;102153.84;4119973;28;20035;-72
2023/05/19 02:23:06;;;;;;;8.90;3.80;;;8.20;99.90;;;7.58;100.00;102149.38;4135061;28;20046;-72
2023/05/19 02:25:08;;;;;;;9.88;3.88;;;8.20;99.90;;;7.60;100.00;102160.59;4119759;28;20027;-72
2023/05/19 02:27:09;;;;;;;10.63;3.95;;;8.20;99.90;;;7.57;100.00;102149.47;4134791;28;20489;-72
2023/05/19 02:29:10;;;;;;;7.35;3.35;;;8.20;99.90;;;7.64;100.00;102156.00;4134613;28;20097;-72
2023/05/19 02:31:11;;;;;;;9.38;3.85;;;8.20;99.90;;;7.64;100.00;102154.22;4138190;28;20482;-72
2023/05/19 02:33:12;;;;;;;6.72;3.75;;;8.30;99.90;;;7.68;100.00;102155.66;4105928;28;20031;-72
2023/05/19 02:35:13;;;;;;;6.95;4.03;;;8.30;99.90;;;7.69;100.00;102156.50;4121344;28;20379;-72
2023/05/19 02:37:15;;;;;;;9.15;4.93;;;8.30;99.90;;;7.69;100.00;102159.13;4123035;28;20046;-72
2023/05/19 02:39:15;;;;;;;7.07;3.47;;;8.30;99.90;;;7.68;100.00;102153.03;4121794;28;20094;-72
2023/05/19 02:41:16;;;;;;;8.32;3.90;;;8.30;99.90;;;7.64;100.00;102154.22;4121821;28;20035;-72
2023/05/19 02:43:18;;;;;;;10.90;3.78;;;8.30;99.90;;;7.66;100.00;102164.59;4121806;28;20026;-72
2023/05/19 02:45:19;;;;;;;10.65;4.53;;;8.30;99.90;;;7.65;100.00;102160.28;4121491;28;20089;-72
2023/05/19 02:47:20;;;;;;;7.65;4.45;;;8.30;99.90;;;7.66;100.00;102159.34;4138044;28;20022;-72
2023/05/19 02:49:21;;;;;;;10.70;3.95;;;8.30;99.90;;;7.67;100.00;102167.13;4123133;28;20030;-72
2023/05/19 02:51:22;;;;;;;12.77;4.63;;;8.30;99.90;;;7.67;100.00;102163.66;4138127;28;20023;-72
2023/05/19 02:53:23;;;;;;;11.70;3.58;;;8.30;99.90;;;7.65;100.00;102153.25;4122863;28;20038;-72
2023/05/19 02:55:24;;;;;;;8.55;4.15;;;8.30;99.90;;;7.54;100.00;102140.00;4131625;28;20038;-72
2023/05/19 02:57:28;;;;;;;10.45;5.35;;;8.30;99.90;;;7.58;100.00;102149.38;4137891;28;20502;-71
2023/05/19 02:59:30;;;;;;;;;;;8.30;99.90;;;7.49;100.00;102136.00;4137764;28;20053;-72
2023/05/19 03:01:33;;;;;;;7.93;4.35;;;8.30;99.90;;;7.59;100.00;102161.53;4122694;28;19914;-72
2023/05/19 03:03:35;;;;;;;7.35;4.05;;;8.20;99.90;;;7.51;100.00;102149.88;4137659;28;20032;-72
2023/05/19 03:05:36;;;;;;;8.98;4.10;;;8.20;99.90;;;7.51;100.00;102150.72;4137563;28;20023;-72
2023/05/19 03:07:36;;;;;;;8.10;4.40;;;8.20;99.90;;;7.55;100.00;102157.44;4121549;28;20029;-72
2023/05/19 03:09:38;;;;;;;8.70;4.97;;;8.20;99.90;;;7.53;100.00;102147.97;4122378;28;20054;-72
2023/05/19 03:11:39;;;;;;;8.70;4.18;;;8.20;99.90;;;7.45;100.00;102143.25;4137441;28;20030;-72
2023/05/19 03:13:40;;;;;;;8.85;4.80;;;8.20;99.90;;;7.51;100.00;102155.97;4122244;28;20034;-72
2023/05/19 03:15:41;;;;;;;10.50;4.30;;;8.20;99.90;;;7.56;100.00;102153.84;4105236;29;20423;-72
2023/05/19 03:17:42;;;;;;;8.93;4.65;;;8.20;99.90;;;7.55;100.00;102160.06;4132771;28;20030;-72
2023/05/19 03:19:43;;;;;;;7.93;4.55;;;8.20;99.90;;;7.49;100.00;102139.47;4137411;28;20486;-72
2023/05/19 03:21:43;;;;;;;7.95;4.95;;;8.20;99.90;;;7.51;100.00;102150.72;4121281;28;20129;-72
2023/05/19 03:23:44;;;;;;;10.18;5.00;;;8.10;99.90;;;7.52;100.00;102155.03;4122493;28;20086;-72
2023/05/19 03:25:45;;;;;;;9.35;5.35;;;8.20;99.90;;;7.51;100.00;102155.97;4122220;28;20026;-72
2023/05/19 03:27:46;;;;;;;7.95;4.63;;;8.20;99.90;;;7.51;100.00;102161.22;4122301;28;20034;-72
2023/05/19 03:29:47;;;;;;;10.23;5.03;;;8.10;99.90;;;7.51;100.00;102163.00;4121122;28;20046;-72
2023/05/19 03:31:48;;;;;;;9.27;4.88;;;8.10;99.90;;;7.42;100.00;102142.59;4122326;28;20039;-72
2023/05/19 03:33:49;;;;;;;10.77;5.20;;;8.10;99.90;;;7.43;100.00;102137.25;4121035;28;20031;-72
2023/05/19 03:35:51;;;;;;;12.02;4.35;;;8.10;99.90;;;7.49;100.00;102152.59;4136970;28;20030;-72
2023/05/19 03:37:52;;;;;;;13.70;4.68;;;8.10;99.90;;;7.38;100.00;102128.81;4121175;28;20089;-72
2023/05/19 03:39:53;;;;;;;15.77;4.85;;;8.10;99.90;;;7.47;100.00;102137.88;4137041;28;20037;-72
2023/05/19 03:41:55;;;;;;;10.93;4.28;;;8.10;99.90;;;7.51;100.00;102144.59;4120790;28;20634;-72
2023/05/19 03:43:56;;;;;;;9.52;4.85;;;8.10;99.90;;;7.49;100.00;102142.09;4105002;28;20487;-72
2023/05/19 03:45:57;;;;;;;12.02;5.32;;;8.20;99.90;;;7.50;100.00;102148.16;4122106;28;20043;-72
2023/05/19 03:47:59;;;;;;;9.75;4.03;;;8.20;99.90;;;7.45;100.00;102137.13;4137155;28;20540;-72
2023/05/19 03:50:01;;;;;;;11.05;5.15;;;8.20;99.90;;;7.42;100.00;102140.81;4137148;28;20027;-72
2023/05/19 03:52:02;;;;;;;10.82;4.75;;;8.10;99.90;;;7.44;100.00;102146.78;4137005;28;20019;-72
2023/05/19 03:54:03;;;;;;;10.93;6.30;;;8.10;99.90;;;7.42;100.00;102140.81;4136850;28;20505;-72
2023/05/19 03:56:06;;;;;;;11.45;5.45;;;8.10;99.90;;;7.44;100.00;102144.16;4120745;28;20022;-72
2023/05/19 03:58:07;;;;;;;13.05;5.07;;;8.10;99.90;;;7.32;100.00;102118.72;4121942;28;20035;-72
2023/05/19 04:00:12;;;;;;;7.78;4.70;;;8.10;99.90;;;7.45;100.00;102145.88;4136701;28;20025;-72
2023/05/19 04:02:13;;;;;;;11.95;5.15;;;8.10;99.90;;;7.42;100.00;102146.06;4121627;28;20038;-72
2023/05/19 04:04:14;;;;;;;9.15;4.53;;;8.10;99.90;;;7.38;100.00;102144.56;4120793;28;20015;-72
2023/05/19 04:06:14;;;;;;;10.57;5.53;;;8.10;99.90;;;7.40;100.00;102147.13;4120579;28;20534;-72
2023/05/19 04:08:15;;;;;;;9.82;5.32;;;8.10;99.90;;;7.39;100.00;102141.03;4121565;28;20122;-72
2023/05/19 04:10:17;;;;;;;9.45;4.90;;;8.10;99.90;;;7.37;100.00;102149.94;4121624;28;20027;-72
2023/05/19 04:12:18;;;;;;;9.10;4.60;;;8.10;99.90;;;7.37;100.00;102148.16;4120698;28;20114;-71
2023/05/19 04:14:19;;;;;;;8.07;4.00;;;8.00;99.90;;;7.35;100.00;102152.66;4121644;28;20050;-72
2023/05/19 04:16:20;;;;;;;10.90;5.25;;;8.00;99.90;;;7.31;100.00;102145.09;4121595;28;20026;-72
2023/05/19 04:18:20;;;;;;;12.18;4.50;;;8.00;99.90;;;7.32;100.00;102155.47;4121976;28;20027;-71
2023/05/19 04:20:21;;;;;;;9.77;4.53;;;8.00;99.90;;;7.27;100.00;102146.22;4121614;28;20034;-72
2023/05/19 04:22:22;;;;;;;11.85;5.38;;;8.00;99.90;;;7.28;100.00;102161.88;4136632;28;20034;-72
2023/05/19 04:24:23;;;;;;;8.15;5.25;;;8.00;99.90;;;7.31;100.00;102161.69;4121221;28;20390;-72
2023/05/19 04:26:25;;;;;;;9.15;4.50;;;8.00;99.90;;;7.27;100.00;102162.81;4121557;28;20096;-72
2023/05/19 04:28:26;;;;;;;11.60;4.82;;;8.00;99.90;;;7.29;100.00;102170.59;4121566;28;20393;-72
2023/05/19 04:30:28;;;;;;;12.07;5.45;;;7.90;99.90;;;7.25;100.00;102172.59;4120189;28;20031;-72
2023/05/19 04:32:29;;;;;;;11.00;5.45;;;7.90;99.90;;;7.27;100.00;102164.59;4121499;28;20487;-72
2023/05/19 04:34:30;;;;;;;9.00;4.90;;;7.90;99.90;;;7.27;100.00;102169.84;4136138;28;20026;-72
2023/05/19 04:36:32;;;;;;;11.40;5.05;;;7.90;99.90;;;7.26;100.00;102162.94;4121213;28;20038;-72
2023/05/19 04:38:35;;;;;;;10.70;5.10;;;7.90;99.90;;;7.21;100.00;102147.47;4121308;28;20030;-72
2023/05/19 04:40:39;;;;;;;10.45;5.00;;;7.90;99.90;;;7.29;100.00;102166.19;4119681;28;20027;-72
2023/05/19 04:42:40;;;;;;;11.75;5.72;;;7.90;99.90;;;7.31;100.00;102171.34;4119908;28;20022;-72
2023/05/19 04:44:41;;;;;;;11.50;5.07;;;8.00;99.90;;;7.34;100.00;102173.75;4121274;28;20486;-72
2023/05/19 04:46:43;;;;;;;11.65;4.65;;;8.00;99.90;;;7.34;100.00;102177.25;4120998;28;20047;-72
2023/05/19 04:48:44;;;;;;;9.70;5.05;;;8.00;99.90;;;7.37;100.00;102179.66;4121025;28;20045;-72
2023/05/19 04:50:47;;;;;;;10.27;5.03;;;8.00;99.90;;;7.31;100.00;102173.97;4121342;28;20031;-72
2023/05/19 04:52:48;;;;;;;10.07;6.05;;;8.00;99.90;;;7.35;100.00;102178.09;4135311;28;20030;-72
2023/05/19 04:54:49;;;;;;;12.80;5.38;;;8.00;99.90;;;7.36;100.00;102175.34;4135737;28;20053;-72
2023/05/19 04:56:50;;;;;;;12.25;6.20;;;8.00;99.90;;;7.44;100.00;102188.81;4104293;29;20031;-72
2023/05/19 04:58:52;;;;;;;11.13;5.25;;;8.00;99.90;;;7.47;100.00;102183.34;4108388;28;20026;-72
2023/05/19 05:00:59;;;;;;;9.52;4.72;;;8.10;99.90;;;7.48;100.00;102177.16;4120989;28;20113;-72
2023/05/19 05:03:03;;;;;;;10.98;6.10;;;8.10;99.90;;;7.52;100.00;102178.66;4119622;28;20379;-72
2023/05/19 05:05:05;;;;;;;10.98;6.28;;;8.10;99.90;;;7.54;100.00;102178.53;4119558;28;20122;-72
2023/05/19 05:07:06;;;;;;;10.45;5.60;;;8.20;99.90;;;7.64;100.00;102183.09;4119554;28;20031;-72
2023/05/19 05:09:07;;;;;;;13.25;6.05;;;8.20;99.90;;;7.64;100.00;102171.75;4120843;28;20037;-72
2023/05/19 05:11:08;;;;;;;10.35;5.85;;;8.30;99.90;;;7.67;100.00;102168.91;4135742;28;20027;-72
2023/05/19 05:13:10;;;;;;;12.57;5.85;;;8.30;99.90;;;7.77;100.00;102178.69;4120913;28;20027;-72
2023/05/19 05:15:11;;;;;;;13.13;5.63;;;8.40;99.90;;;7.82;100.00;102172.28;4135511;28;20121;-72
2023/05/19 05:17:12;;;;;;;13.65;5.47;;;8.40;99.90;;;7.84;100.00;102170.41;4112433;28;20062;-72
2023/05/19 05:19:14;;;;;;;11.00;5.70;;;8.50;99.90;;;7.93;100.00;102177.66;4103821;28;20027;-72
2023/05/19 05:21:15;;;;;;;14.50;6.78;;;8.50;99.90;;;7.98;100.00;102181.66;4119227;28;20086;-72
2023/05/19 05:23:16;;;;;;;17.92;7.30;;;8.50;99.90;;;8.05;100.00;102171.56;4120256;28;20018;-72
2023/05/19 05:25:18;;;;;;;13.75;6.82;;;8.60;99.90;;;8.09;100.00;102179.16;4120319;28;20058;-72
2023/05/19 05:27:19;;;;;;;9.23;5.25;;;8.70;99.90;;;8.16;100.00;102174.28;4135535;28;20046;-72
2023/05/19 05:29:20;;;;;;;12.27;6.03;;;8.70;99.90;;;8.19;100.00;102169.69;4135475;28;20033;-72
2023/05/19 05:31:21;;;;;;;16.27;6.53;;;8.80;99.90;;;8.25;100.00;102171.03;4119455;28;20037;-72
2023/05/19 05:33:23;;;;;;;12.93;5.88;;;8.80;99.90;;;8.28;100.00;102166.44;4119591;28;20034;-72
2023/05/19 05:35:24;;;;;;;13.32;5.88;;;8.90;99.90;;;8.37;100.00;102172.00;4135296;28;20094;-72
2023/05/19 05:37:25;;;;;;;9.05;5.10;;;8.90;99.90;;;8.42;100.00;102183.06;4120452;28;20042;-72
2023/05/19 05:39:26;;;;;;;12.70;6.05;;;9.00;99.90;;;8.46;100.00;102187.13;4120158;28;20031;-72
2023/05/19 05:41:36;;;;;;;9.88;6.10;;;9.00;99.90;;;8.51;100.00;102177.97;4134991;28;20030;-72
2023/05/19 05:43:37;;;;;;;14.00;6.28;;;9.10;99.90;;;8.54;100.00;102169.88;4129737;28;20089;-72
2023/05/19 05:45:38;;;;;;;12.10;5.90;;;9.20;99.90;;;8.58;100.00;102170.50;4134971;28;20050;-72
2023/05/19 05:47:40;;;;;;;16.48;5.82;;;9.20;99.90;;;8.68;100.00;102180.28;4120601;28;20018;-72
2023/05/19 05:49:42;;;;;;;9.18;5.88;;;9.30;99.90;;;8.77;100.00;102192.78;4135189;28;20430;-72
2023/05/19 05:51:44;;;;;;;12.93;6.70;;;9.30;99.90;;;8.79;100.00;102190.03;4135099;28;20031;-72
2023/05/19 05:53:52;;;;;;;14.73;5.90;;;9.40;99.90;;;8.84;100.00;102187.94;4119878;28;20482;-72
2023/05/19 05:55:54;;;;;;;13.32;6.15;;;9.40;99.90;;;8.89;100.00;102197.16;4135056;28;20050;-72
2023/05/19 05:57:57;;;;;;;11.18;6.88;;;9.50;99.90;;;8.90;100.00;102187.47;4135106;28;20502;-72
2023/05/19 05:59:58;;;;;;;13.53;6.13;;;9.50;99.90;;;8.91;100.00;102181.25;4134874;28;20022;-72
2023/05/19 06:01:59;;;;;;;16.90;6.53;;;9.60;99.90;;;9.04;100.00;102194.38;4118662;28;20659;-72
2023/05/19 06:04:00;;;;;;;15.93;6.47;;;9.60;99.90;;;9.08;100.00;102195.84;4119692;28;20554;-72
2023/05/19 06:06:01;;;;;;;11.00;5.78;;;9.70;99.90;;;9.11;100.00;102193.81;4134656;28;20022;-72
2023/05/19 06:08:02;;;;;;;14.30;6.30;;;9.70;99.90;;;9.21;100.00;102196.63;4118961;28;20402;-72
2023/05/19 06:10:04;;;;;;;12.43;6.57;;;9.80;99.90;;;9.26;100.00;102194.47;4119691;28;20037;-72
2023/05/19 06:12:05;;;;;;;13.40;7.05;;;9.80;99.90;;;9.30;100.00;102183.63;4120123;28;20026;-72
2023/05/19 06:14:06;;;;;;;10.68;5.82;;;9.90;99.90;;;9.39;100.00;102184.75;4134923;28;20033;-72
2023/05/19 06:16:07;;;;;;;13.20;7.20;;;9.90;99.90;;;9.40;100.00;102184.66;4134922;28;20034;-72
2023/05/19 06:18:08;;;;;;;15.10;6.38;;;10.00;99.90;;;9.46;100.00;102191.25;4118576;28;20031;-72
2023/05/19 06:20:11;;;;;;;13.90;7.43;;;10.00;99.90;;;9.49;100.00;102184.91;4119999;28;20035;-72
2023/05/19 06:22:12;;;;;;;12.00;6.85;;;10.10;99.90;;;9.59;100.00;102191.19;4135215;28;20030;-72
2023/05/19 06:24:13;;;;;;;16.08;6.75;;;10.10;99.90;;;9.62;100.00;102191.78;4119832;28;20062;-72
2023/05/19 06:26:14;;;;;;;14.80;6.15;;;10.20;99.90;;;9.67;100.00;102181.75;4120040;28;20093;-72
2023/05/19 06:28:15;;;;;;;9.45;5.38;;;10.30;99.90;;;9.87;100.00;102186.34;4134935;28;20031;-72
2023/05/19 06:30:16;;;;;;;13.90;6.45;;;10.30;99.90;;;9.94;100.00;102182.31;4134823;28;20022;-72
2023/05/19 06:32:17;;;;;;;14.25;6.38;;;10.40;99.90;;;10.07;100.00;102178.69;4118773;28;20035;-72
2023/05/19 06:34:19;;;;;;;12.32;6.25;;;10.50;99.90;;;10.45;100.00;102177.44;4134776;28;20081;-72
2023/05/19 06:36:20;;;;;;;13.55;6.03;;;10.70;99.90;;;10.61;100.00;102177.09;4118650;28;20031;-72
2023/05/19 06:38:21;;;;;;;11.90;5.85;;;10.80;99.90;;;10.64;100.00;102183.91;4118621;28;20114;-72
2023/05/19 06:40:22;;;;;;;12.32;6.55;;;10.90;99.90;;;10.62;100.00;102180.56;4134561;28;20490;-72
2023/05/19 06:42:24;;;;;;;15.80;7.15;;;11.00;99.90;;;10.49;100.00;102163.06;4118479;28;20042;-72
2023/05/19 06:44:25;;;;;;;13.07;6.57;;;11.00;99.90;;;10.60;100.00;102174.59;4119892;28;20027;-72
2023/05/19 06:46:25;;;;;;;16.52;7.68;;;11.10;99.90;;;10.58;100.00;102182.59;4134425;28;20090;-72
2023/05/19 06:48:27;;;;;;;15.95;5.75;;;11.10;99.90;;;10.58;100.00;102172.03;4134588;28;20159;-72
2023/05/19 06:50:27;;;;;;;15.95;7.18;;;11.20;99.90;;;10.66;100.00;102182.84;4119643;28;20033;-72
2023/05/19 06:52:28;;;;;;;16.88;6.18;;;11.20;99.90;;;10.73;100.00;102170.84;4134727;28;20106;-72
2023/05/19 06:54:29;;;;;;;9.95;5.93;;;11.20;99.90;;;10.73;100.00;102162.91;4119524;28;20026;-72
2023/05/19 06:56:30;;;;;;;13.30;6.28;;;11.30;99.90;;;10.65;100.00;102141.59;4119726;28;20406;-72
2023/05/19 06:58:31;;;;;;;14.00;5.75;;;11.30;99.90;;;10.83;100.00;102161.22;4119795;28;20059;-72
2023/05/19 07:00:32;;;;;;;12.70;6.07;;;11.40;99.90;;;10.91;100.00;102158.81;4134683;28;20486;-72
2023/05/19 07:02:33;;;;;;;12.82;6.60;;;11.50;99.90;;;11.01;100.00;102167.69;4118560;28;20058;-72
2023/05/19 07:04:35;;;;;;;11.57;6.05;;;11.50;99.90;;;11.04;100.00;102170.06;4134360;28;20479;-72
2023/05/19 07:06:36;;;;;;;14.13;6.28;;;11.60;99.90;;;11.11;100.00;102155.38;4118328;28;20058;-72
2023/05/19 07:08:37;;;;;;;14.70;6.07;;;11.70;99.90;;;11.09;100.00;102145.91;4134310;28;20030;-72
2023/05/19 07:10:37;;;;;;;13.05;5.97;;;11.70;99.90;;;11.26;100.00;102157.75;4118475;28;20031;-72
2023/05/19 07:12:38;;;;;;;11.02;5.75;;;11.80;99.90;;;11.33;100.00;102166.84;4134519;28;20548;-72
2023/05/19 07:14:39;;;;;;;14.48;6.18;;;11.90;99.90;;;11.37;100.00;102157.69;4118354;28;20027;-72
2023/05/19 07:16:40;;;;;;;9.60;6.63;;;12.00;99.90;;;11.44;100.00;102156.25;4120631;28;20376;-72
2023/05/19 07:18:41;;;;;;;14.07;5.60;;;12.10;99.90;;;11.62;100.00;102166.09;4122588;28;20082;-72
2023/05/19 07:20:42;;;;;;;14.10;6.10;;;12.20;99.90;;;11.70;100.00;102160.22;4122184;28;20037;-72
2023/05/19 07:22:43;;;;;;;10.10;5.93;;;12.20;99.90;;;11.83;100.00;102168.78;4137396;28;20441;-72
2023/05/19 07:24:44;;;;;;;11.82;5.65;;;12.40;99.90;;;11.91;100.00;102170.78;4121247;28;20031;-72
2023/05/19 07:26:45;;;;;;;9.00;5.32;;;12.40;99.90;;;11.90;100.00;102171.75;4137425;28;20029;-72
2023/05/19 07:28:46;;;;;;;12.55;5.15;;;12.50;99.90;;;11.96;100.00;102180.00;4122454;28;20027;-72
2023/05/19 07:30:48;;;;;;;12.95;5.88;;;12.50;99.90;;;12.00;100.00;102170.84;4122361;28;20027;-72
2023/05/19 07:32:49;;;;;;;15.77;5.63;;;12.60;99.90;;;12.04;100.00;102172.25;4137050;28;20069;-72
2023/05/19 07:34:50;;;;;;;13.18;5.45;;;12.60;99.90;;;12.14;100.00;102170.50;4122545;28;20027;-72
2023/05/19 07:36:51;;;;;;;12.63;6.25;;;12.70;99.90;;;12.20;100.00;102163.84;4137294;28;20089;-72
2023/05/19 07:38:52;;;;;;;14.25;5.90;;;12.80;99.90;;;12.27;100.00;102167.66;4122066;28;20058;-72
2023/05/19 07:40:53;;;;;;;10.98;5.80;;;12.80;99.90;;;12.31;100.00;102165.56;4137125;28;20442;-72
2023/05/19 07:42:54;;;;;;;15.55;5.78;;;12.90;99.90;;;12.40;100.00;102167.41;4121666;28;20027;-72
2023/05/19 07:44:55;;;;;;;10.02;5.78;;;13.00;99.90;;;12.43;100.00;102159.19;4122128;28;20023;-71
2023/05/19 07:46:56;;;;;;;12.45;5.97;;;13.00;99.90;;;12.54;100.00;102170.56;4122050;28;20130;-72
2023/05/19 07:48:57;;;;;;;9.75;5.20;;;13.10;99.90;;;12.62;100.00;102172.53;4120839;28;20078;-72
2023/05/19 07:50:58;;;;;;;11.82;5.88;;;13.20;99.90;;;12.74;100.00;102172.28;4122186;28;20406;-71
2023/05/19 07:52:59;;;;;;;15.10;6.28;;;13.30;99.90;;;12.80;100.00;102167.41;4122107;28;20105;-70
2023/05/19 07:54:59;;;;;;;12.10;5.20;;;13.40;99.90;;;12.97;100.00;102172.88;4136912;28;20029;-71
2023/05/19 07:57:00;;;;;;;10.75;5.53;;;13.50;99.90;;;13.10;100.00;102178.81;4121892;28;20035;-71
2023/05/19 07:59:03;;;;;;;12.23;4.50;;;13.60;99.90;;;13.25;100.00;102171.28;4121918;28;20031;-71
2023/05/19 08:01:04;;;;;;;10.25;5.15;;;13.70;99.90;;;13.39;100.00;102175.31;4136683;28;20483;-71
2023/05/19 08:03:04;;;;;;;10.63;4.80;;;13.80;99.90;;;13.56;100.00;102178.13;4120834;28;20033;-71
2023/05/19 08:05:08;;;;;;;11.82;5.03;;;14.00;99.90;;;13.58;100.00;102167.38;4121734;28;20038;-70
2023/05/19 08:07:08;;;;;;;7.88;5.28;;;14.10;99.90;;;13.51;100.00;102171.56;4136594;28;20109;-71
2023/05/19 08:09:10;;;;;;;10.02;4.40;;;14.10;99.90;;;13.68;100.00;102168.19;4120343;28;20094;-70
2023/05/19 08:11:11;;;;;;;13.93;5.63;;;14.20;99.90;;;13.75;100.00;102166.66;4136588;28;20035;-70
2023/05/19 08:13:12;;;;;;;16.02;6.38;;;14.30;99.90;;;13.71;100.00;102157.31;4121591;28;20041;-71
2023/05/19 08:15:13;;;;;;;13.25;4.88;;;14.30;99.90;;;13.84;100.00;102168.47;4136652;28;20069;-70
2023/05/19 08:17:14;;;;;;;8.77;4.82;;;14.40;99.90;;;13.95;100.00;102162.97;4121840;28;20545;-72
2023/05/19 08:19:15;;;;;;;11.82;4.63;;;14.50;99.90;;;14.02;100.00;102166.75;4136565;28;20513;-70
2023/05/19 08:21:16;;;;;;;14.38;6.25;;;14.60;99.90;;;13.97;100.00;102162.84;4136310;28;20038;-71
2023/05/19 08:23:16;;;;;;;9.38;4.80;;;14.60;99.90;;;14.15;100.00;102154.00;4121760;28;20029;-71
2023/05/19 08:25:18;;;;;;;14.13;5.65;;;14.70;99.90;;;14.29;100.00;102153.53;4121436;28;20058;-71
2023/05/19 08:27:19;;;;;;;12.32;5.63;;;14.80;99.90;;;14.34;100.00;102156.59;4135636;28;20014;-70
2023/05/19 08:29:20;;;;;;;9.77;5.13;;;14.90;99.90;;;14.29;100.00;102148.22;4136290;28;20038;-71
2023/05/19 08:31:21;;;;;;;8.30;4.40;;;15.00;99.90;;;14.52;100.00;102158.47;4121587;28;20022;-71
2023/05/19 08:33:22;;;;;;;11.18;4.90;;;15.00;99.90;;;14.73;100.00;102149.28;4120179;28;20042;-71